Terminal Aerodrome Forecast
Issued by NWS Medford, OR

Home | Current Version | Previous Version | Text Only | Print | Product List | Glossary On
Versions: 1 2 3 4 5 6 7 8 9 10 11 12 13 14 15 16 17 18 19
000
FTUS46 KMFR 251700 RRA
TAFMFR
TAF
KMFR 251758Z 2518/2618 15020G35KT P6SM -RA BKN080 OVC100
     FM252200 23020G30KT P6SM -SHRA OVC035
     FM260200 29010KT P6SM -SHRA BKN025 OVC035
     FM261700 VRB03KT P6SM -SHRA BKN035 OVC060=

USA.gov is the U.S. government's official web portal to all federal, state and local government web resources and services.